Accueil
METAR-TAF:

METAR-TAF

Aéroports :

Chandigarh, Inde

latitude: 30-40-29N, longitude: 76-47-26E, altitude: 314 m

METAR: absent

Heure: 10:33 (05:03 UTC)

Prévision

Le bulletin a été fait il y a 7 heures et 33 minutes, à 21:30 UTC
Prévision valable du 08 à 00 UTC au 08 à 12 UTC
Vent 2 kt de direction variable
Visibilité: 3000 m
Ciel clair
brume
Probabilité 30% :
Temporairement
du 08 à 01 UTC au 08 à 03 UTC
Vent 2 kt de direction variable
Visibilité: 1800 m
Ciel clair
brume
Evoluant progressivement
du 08 à 03 UTC au 08 à 05 UTC
Vent 10 kt de sud/sud-ouest
Visibilité: 4000 m
Ciel clair
brume sèche

TAF: VICG 072130Z 0800/0812 VRB02KT 3000 BR SKC PROB30 TEMPO 0801/0803 VRB02KT 1800 BR SKC BECMG 0803/0805 20010KT 4000 HZ SKC

Observations et prévisions météorologiques de plus de 4000 aéroports (messages METAR et TAF).

Les stations disponibles sont représentées par des disques jaunes et rouges sur la carte.

Passer la souris dessus pour voir le nom de la station.

Cliquer dessus pour voir les observations et prévisions météorologiques.

Pour changer de carte: cliquez sur les boutons verts avec une croix noire pour zoomer, sur le bouton vert avec un tiret pour effectuer un zoom arrière, ou sur les flèches vertes pour les cartes adjacentes.


METAR-TAF: